Scappoose, OR (97056)

16:50 PDT le 24 octobre 2014 (GMT -0700)
Scappoose Industrial | Change Station
CLOSE
Current Station
Aéroport
Location: Scappoose,
Altitude: 56 ft
Stations météo à proximité

Alt. 56 ft 45.77 °N, 122.86 °W | Updated 57 minutes ago

Pluie
Pluie
55 ° F
Paraît 55 ° F
N
0
Vent Variable Vent de Nord

Aujourd'hui
Haut(e) -- | Bas -- ° F
--% Risque de précip.
Hier
Haut(e) -- | Bas -- ° F
Precip. -- pouce
7:40 AM 6:10 PM
Nouvelle lune, 1% visible
Pression 29.87 pouce
Visibilité 8.0 Miles terrestres
Nuages Couvert 8000 ft
Point de rosée 52 ° F
Humidité 89%
Précipitations 0.16 pouce
Profondeur de la couche neigeuse Non disponible.
UV 0 sur 12
Pollen .40 sur 12
Qualité de l'air Non disponible.
Flu Activity Sporadic
METAR KSPB 242253Z AUTO 00000KT 8SM -RA OVC080 13/11 A2987 RMK AO2 SLP114 P0003 T01280111

More Conditions Fewer Conditions

Pression 29.87 pouce
Visibilité 8.0 Miles terrestres
Nuages Couvert 8000 ft
Point de rosée 52 ° F
Humidité 89%
Précipitations 0.16 pouce
Profondeur de la couche neigeuse Non disponible.
UV 0 sur 12
Pollen .40 sur 12
Qualité de l'air Non disponible.
Flu Activity Sporadic
METAR KSPB 242253Z AUTO 00000KT 8SM -RA OVC080 13/11 A2987 RMK AO2 SLP114 P0003 T01280111

More Conditions Fewer Conditions

10-Day Weather Forecast

Almanac

Astronomie

Oct. 24, 2014 Lever Coucher
Temps réel 07:40 PDT 18:10 PDT
Crépuscule civil 07:10 PDT 18:40 PDT
Crépuscule nautique 06:35 PDT 19:15 PDT
Crépuscule astronomique 06:00 PDT 19:49 PDT
Lune 08:27 PDT 18:51 PDT
Durée de lumière visible 11h 30m
Longueur du jour
10h 29m
Tomorrow will be 3m 0s shorter.
Nouvelle lune, 1% of the Moon is Illuminated
Aujourd'hui
Nouvelle lune
Oct 30
Premier quartier
Nov 6
Pleine lune
Nov 14
Dernier quartier
Nov 22
Nouveau

Extrêmes aujourd'hui

State Highs State Lows

Community

WunderPhotos

Upload Photos

1,764,713 Photos téléchargées !

Nearby

Épaisseur de neige

Station Depth Altitude
Seine Creek 0 in 2000 ft
North Fork 0 in 3120 ft
Greenpoint 0 in 3200 ft
Mud Ridge 0 in 3800 ft
Clear Lake 1 in 3500 ft

Activité sismique

Ville Distance Mag. Time & Date
No recent earthquake activity has been reported nearby.
Minimum magnitude displayed is 2.5.

Températures des eaux côtières

Lieu Température
Aucun rapport de station

Stations météo à proximité